Private Wetterstation Wechselburg
Wetterdaten: Dienstag, 02.10.2012
Datum Zeit Temp. +2m Bodentemp. Temp.+5cm Temp. Wind Windchill X Diff Temp. Feuchte +2m Feuchte +5cm Sonnenschein Luftdruck Regen Wind Richtung Richtung Sonnenschein UV Taupunkt Windchill Windben
02.10.2012 00:00 9,3 C 19,1 C 10,4 C 9,8 C 9,8 C 0,5 C 89 % 91 % 0 % 1017,6 hPa 0,0 l/m 0,0 km/h (0 Bft) O-NO 67 0 min 0,0 UV-I 7,6 C 9,8 C 0,0 km/h (0 Bft)
02.10.2012 00:05 9,2 C 19,1 C 10,4 C 9,8 C 9,8 C 0,6 C 89 % 91 % 0 % 1017,4 hPa 0,0 l/m 0,0 km/h (0 Bft) O-NO 67 0 min 0,0 UV-I 7,5 C 9,8 C 0,0 km/h (0 Bft)
02.10.2012 00:10 9,2 C 19,1 C 10,5 C 9,8 C 9,8 C 0,6 C 89 % 91 % 0 % 1017,4 hPa 0,0 l/m 0,0 km/h (0 Bft) S-SW 202 0 min 0,0 UV-I 7,5 C 9,8 C 0,0 km/h (0 Bft)
02.10.2012 00:15 9,2 C 19,1 C 10,4 C 9,8 C 9,8 C 0,6 C 89 % 91 % 0 % 1017,4 hPa 0,0 l/m 0,0 km/h (0 Bft) NW 315 0 min 0,0 UV-I 7,5 C 9,8 C 0,0 km/h (0 Bft)
02.10.2012 00:20 9,2 C 19,1 C 10,5 C 9,9 C 9,9 C 0,7 C 89 % 91 % 0 % 1017,4 hPa 0,0 l/m 0,0 km/h (0 Bft) O-NO 67 0 min 0,0 UV-I 7,5 C 9,9 C 0,0 km/h (0 Bft)
02.10.2012 00:25 9,2 C 19,1 C 10,5 C 10,0 C 10,0 C 0,8 C 89 % 91 % 0 % 1017,4 hPa 0,0 l/m 0,0 km/h (0 Bft) O-NO 67 0 min 0,0 UV-I 7,5 C 10,0 C 0,0 km/h (0 Bft)
02.10.2012 00:30 9,3 C 19,0 C 10,5 C 10,2 C 10,2 C 0,9 C 90 % 91 % 0 % 1017,4 hPa 0,0 l/m 0,0 km/h (0 Bft) O-SO 112 0 min 0,0 UV-I 7,7 C 10,2 C 0,0 km/h (0 Bft)
02.10.2012 00:35 9,4 C 19,0 C 10,6 C 10,2 C 10,2 C 0,8 C 90 % 91 % 0 % 1017,4 hPa 0,0 l/m 0,0 km/h (0 Bft) O-SO 112 0 min 0,0 UV-I 7,8 C 10,2 C 0,0 km/h (0 Bft)
02.10.2012 00:41 9,5 C 18,9 C 10,7 C 10,5 C 10,5 C 1,0 C 90 % 91 % 0 % 1017,2 hPa 0,0 l/m 0,0 km/h (0 Bft) N 0 0 min 0,0 UV-I 7,9 C 10,5 C 2,3 km/h (1 Bft)
02.10.2012 00:55 9,6 C 18,9 C 10,9 C 10,7 C 10,7 C 1,1 C 89 % 91 % 0 % 1017,2 hPa 0,0 l/m 0,2 km/h (0 Bft) SO 135 0 min 0,0 UV-I 7,9 C 10,7 C 0,0 km/h (0 Bft)
02.10.2012 01:00 9,7 C 19,0 C 11,0 C 10,7 C 10,7 C 1,0 C 89 % 91 % 0 % 1017,2 hPa 0,0 l/m 0,0 km/h (0 Bft) W-SW 247 0 min 0,0 UV-I 8,0 C 10,7 C 0,0 km/h (0 Bft)
02.10.2012 01:05 9,9 C 19,0 C 11,1 C 10,7 C 10,7 C 0,8 C 89 % 91 % 0 % 1017,4 hPa 0,0 l/m 0,0 km/h (0 Bft) O-SO 112 0 min 0,0 UV-I 8,2 C 10,7 C 0,0 km/h (0 Bft)
02.10.2012 01:10 9,8 C 19,0 C 11,0 C 10,8 C 10,8 C 1,0 C 89 % 91 % 0 % 1017,4 hPa 0,0 l/m 0,0 km/h (0 Bft) O-SO 112 0 min 0,0 UV-I 8,1 C 10,8 C 0,0 km/h (0 Bft)
02.10.2012 01:15 10,0 C 19,0 C 11,1 C 10,8 C 10,8 C 0,8 C 89 % 91 % 0 % 1017,4 hPa 0,0 l/m 0,0 km/h (0 Bft) N-NO 22 0 min 0,0 UV-I 8,3 C 10,8 C 0,0 km/h (0 Bft)
02.10.2012 01:20 10,1 C 19,0 C 11,0 C 10,8 C 10,8 C 0,7 C 89 % 90 % 0 % 1017,4 hPa 0,0 l/m 0,0 km/h (0 Bft) SO 135 0 min 0,0 UV-I 8,4 C 10,8 C 0,0 km/h (0 Bft)
02.10.2012 01:25 10,0 C 18,9 C 11,0 C 10,8 C 10,8 C 0,8 C 89 % 90 % 0 % 1017,1 hPa 0,0 l/m 0,0 km/h (0 Bft) O-NO 67 0 min 0,0 UV-I 8,3 C 10,8 C 0,0 km/h (0 Bft)
02.10.2012 01:30 10,1 C 18,9 C 11,0 C 10,8 C 10,8 C 0,7 C 88 % 90 % 0 % 1017,1 hPa 0,0 l/m 0,2 km/h (0 Bft) O 90 0 min 0,0 UV-I 8,2 C 10,8 C 0,0 km/h (0 Bft)
02.10.2012 01:35 10,3 C 18,9 C 11,0 C 10,7 C 10,7 C 0,4 C 88 % 90 % 0 % 1017,1 hPa 0,0 l/m 0,2 km/h (0 Bft) S-SO 157 0 min 0,0 UV-I 8,4 C 10,7 C 0,0 km/h (0 Bft)
02.10.2012 01:40 10,2 C 18,9 C 11,0 C 10,6 C 10,6 C 0,4 C 88 % 90 % 0 % 1017,1 hPa 0,0 l/m 0,0 km/h (0 Bft) SW 225 0 min 0,0 UV-I 8,3 C 10,6 C 3,2 km/h (1 Bft)
02.10.2012 01:45 10,1 C 18,9 C 10,9 C 10,5 C 10,5 C 0,4 C 87 % 90 % 0 % 1017,3 hPa 0,0 l/m 0,2 km/h (0 Bft) W-SW 247 0 min 0,0 UV-I 8,0 C 10,5 C 0,0 km/h (0 Bft)
02.10.2012 01:50 10,0 C 18,9 C 10,8 C 10,4 C 10,4 C 0,4 C 87 % 90 % 0 % 1017,3 hPa 0,0 l/m 0,2 km/h (0 Bft) N-NW 337 0 min 0,0 UV-I 7,9 C 10,4 C 0,0 km/h (0 Bft)
02.10.2012 01:55 10,0 C 18,9 C 10,8 C 10,2 C 10,2 C 0,2 C 87 % 90 % 0 % 1017,3 hPa 0,0 l/m 0,0 km/h (0 Bft) SW 225 0 min 0,0 UV-I 7,9 C 10,2 C 0,0 km/h (0 Bft)
02.10.2012 02:00 9,9 C 18,9 C 10,7 C 10,2 C 10,2 C 0,3 C 87 % 90 % 0 % 1017,3 hPa 0,0 l/m 0,2 km/h (0 Bft) NW 315 0 min 0,0 UV-I 7,8 C 10,2 C 0,0 km/h (0 Bft)
02.10.2012 02:05 9,9 C 18,9 C 10,6 C 10,0 C 10,0 C 0,1 C 87 % 90 % 0 % 1017,4 hPa 0,0 l/m 0,2 km/h (0 Bft) N-NW 337 0 min 0,0 UV-I 7,8 C 10,0 C 0,0 km/h (0 Bft)
02.10.2012 02:10 9,7 C 18,9 C 10,6 C 9,9 C 9,9 C 0,2 C 86 % 90 % 0 % 1017,4 hPa 0,0 l/m 0,0 km/h (0 Bft) NO 45 0 min 0,0 UV-I 7,5 C 9,9 C 0,0 km/h (0 Bft)
02.10.2012 02:15 9,6 C 18,9 C 10,5 C 9,8 C 9,8 C 0,2 C 86 % 90 % 0 % 1017,4 hPa 0,0 l/m 0,0 km/h (0 Bft) S 180 0 min 0,0 UV-I 7,4 C 9,8 C 0,0 km/h (0 Bft)
02.10.2012 02:20 9,6 C 18,9 C 10,4 C 9,6 C 9,6 C 0,0 C 86 % 90 % 0 % 1017,4 hPa 0,0 l/m 0,0 km/h (0 Bft) S 180 0 min 0,0 UV-I 7,4 C 9,6 C 0,0 km/h (0 Bft)
02.10.2012 02:25 9,5 C 18,9 C 10,3 C 9,6 C 9,6 C 0,1 C 87 % 90 % 0 % 1017,4 hPa 0,0 l/m 0,0 km/h (0 Bft) SO 135 0 min 0,0 UV-I 7,4 C 9,6 C 0,0 km/h (0 Bft)
02.10.2012 02:30 9,4 C 18,9 C 10,3 C 9,5 C 9,5 C 0,1 C 87 % 90 % 0 % 1017,4 hPa 0,0 l/m 0,2 km/h (0 Bft) S 180 0 min 0,0 UV-I 7,3 C 9,5 C 2,1 km/h (1 Bft)
02.10.2012 02:35 9,5 C 18,9 C 10,3 C 9,6 C 9,6 C 0,1 C 87 % 90 % 0 % 1017,4 hPa 0,0 l/m 0,2 km/h (0 Bft) SW 225 0 min 0,0 UV-I 7,4 C 9,6 C 0,0 km/h (0 Bft)
02.10.2012 02:40 9,4 C 18,9 C 10,3 C 9,7 C 9,7 C 0,3 C 87 % 90 % 0 % 1017,4 hPa 0,0 l/m 0,2 km/h (0 Bft) W-SW 247 0 min 0,0 UV-I 7,3 C 9,7 C 1,9 km/h (1 Bft)
02.10.2012 02:45 9,3 C 18,9 C 10,3 C 9,8 C 9,8 C 0,5 C 87 % 90 % 0 % 1017,4 hPa 0,0 l/m 0,2 km/h (0 Bft) SW 225 0 min 0,0 UV-I 7,2 C 9,8 C 0,0 km/h (0 Bft)
02.10.2012 02:50 9,3 C 18,8 C 10,2 C 9,9 C 9,9 C 0,6 C 87 % 90 % 0 % 1017,4 hPa 0,0 l/m 0,2 km/h (0 Bft) W 270 0 min 0,0 UV-I 7,2 C 9,9 C 3,4 km/h (1 Bft)
02.10.2012 02:55 9,3 C 18,8 C 10,3 C 10,0 C 10,0 C 0,7 C 87 % 90 % 0 % 1017,4 hPa 0,0 l/m 0,3 km/h (0 Bft) W 270 0 min 0,0 UV-I 7,2 C 10,0 C 0,0 km/h (0 Bft)
02.10.2012 03:00 9,4 C 18,9 C 10,3 C 9,9 C 9,9 C 0,5 C 88 % 90 % 0 % 1017,4 hPa 0,0 l/m 0,2 km/h (0 Bft) S-SO 157 0 min 0,0 UV-I 7,5 C 9,9 C 2,3 km/h (1 Bft)
02.10.2012 03:05 9,4 C 18,9 C 10,3 C 9,9 C 9,9 C 0,5 C 88 % 90 % 0 % 1017,2 hPa 0,0 l/m 0,0 km/h (0 Bft) W-NW 292 0 min 0,0 UV-I 7,5 C 9,9 C 0,0 km/h (0 Bft)
02.10.2012 03:10 9,3 C 18,9 C 10,2 C 9,8 C 9,8 C 0,5 C 87 % 90 % 0 % 1017,2 hPa 0,0 l/m 0,0 km/h (0 Bft) SO 135 0 min 0,0 UV-I 7,2 C 9,8 C 0,0 km/h (0 Bft)
02.10.2012 03:15 9,3 C 18,9 C 10,3 C 9,7 C 9,7 C 0,4 C 87 % 90 % 0 % 1017,2 hPa 0,0 l/m 0,0 km/h (0 Bft) SO 135 0 min 0,0 UV-I 7,2 C 9,7 C 0,0 km/h (0 Bft)
02.10.2012 03:20 9,3 C 18,9 C 10,1 C 9,6 C 9,6 C 0,3 C 87 % 90 % 0 % 1017,2 hPa 0,0 l/m 0,0 km/h (0 Bft) O-SO 112 0 min 0,0 UV-I 7,2 C 9,6 C 0,0 km/h (0 Bft)
02.10.2012 03:25 9,3 C 18,9 C 10,1 C 9,5 C 9,5 C 0,2 C 87 % 90 % 0 % 1017,1 hPa 0,0 l/m 0,0 km/h (0 Bft) O-SO 112 0 min 0,0 UV-I 7,2 C 9,5 C 0,0 km/h (0 Bft)
02.10.2012 03:30 9,2 C 18,9 C 10,0 C 9,4 C 9,4 C 0,2 C 87 % 90 % 0 % 1017,1 hPa 0,0 l/m 0,0 km/h (0 Bft) SO 135 0 min 0,0 UV-I 7,2 C 9,4 C 0,0 km/h (0 Bft)
02.10.2012 03:35 9,3 C 18,9 C 10,0 C 9,3 C 9,3 C 0,0 C 87 % 90 % 0 % 1017,1 hPa 0,0 l/m 0,0 km/h (0 Bft) N-NO 22 0 min 0,0 UV-I 7,2 C 9,3 C 0,0 km/h (0 Bft)
02.10.2012 03:40 9,1 C 18,9 C 10,0 C 9,2 C 9,2 C 0,1 C 87 % 90 % 0 % 1017,1 hPa 0,0 l/m 0,0 km/h (0 Bft) O-SO 112 0 min 0,0 UV-I 7,1 C 9,2 C 0,0 km/h (0 Bft)
02.10.2012 03:45 9,1 C 18,9 C 9,9 C 9,2 C 9,2 C 0,1 C 87 % 90 % 0 % 1017,1 hPa 0,0 l/m 0,0 km/h (0 Bft) SO 135 0 min 0,0 UV-I 7,1 C 9,2 C 0,0 km/h (0 Bft)
02.10.2012 03:50 9,0 C 18,9 C 9,9 C 9,0 C 9,0 C 0,0 C 87 % 90 % 0 % 1017,1 hPa 0,0 l/m 0,0 km/h (0 Bft) S 180 0 min 0,0 UV-I 7,0 C 9,0 C 0,0 km/h (0 Bft)
02.10.2012 03:55 9,1 C 18,9 C 9,8 C 9,1 C 9,0 C 0,0 C 87 % 90 % 0 % 1017,1 hPa 0,0 l/m 0,0 km/h (0 Bft) W-SW 247 0 min 0,0 UV-I 7,1 C 9,0 C 0,0 km/h (0 Bft)
02.10.2012 04:00 9,0 C 18,9 C 9,8 C 9,0 C 8,9 C 0,0 C 87 % 90 % 0 % 1017,1 hPa 0,0 l/m 0,0 km/h (0 Bft) O-NO 67 0 min 0,0 UV-I 7,0 C 8,9 C 0,0 km/h (0 Bft)
02.10.2012 04:05 8,9 C 18,9 C 9,7 C 8,9 C 8,9 C 0,0 C 87 % 90 % 0 % 1016,9 hPa 0,0 l/m 0,0 km/h (0 Bft) O-NO 67 0 min 0,0 UV-I 6,9 C 8,9 C 0,0 km/h (0 Bft)
02.10.2012 04:10 8,9 C 18,9 C 9,7 C 8,9 C 8,8 C 0,0 C 87 % 90 % 0 % 1016,9 hPa 0,0 l/m 0,0 km/h (0 Bft) O-SO 112 0 min 0,0 UV-I 6,9 C 8,8 C 0,0 km/h (0 Bft)
02.10.2012 04:15 8,9 C 18,9 C 9,6 C 8,9 C 8,8 C 0,0 C 88 % 90 % 0 % 1016,9 hPa 0,0 l/m 0,0 km/h (0 Bft) W-NW 292 0 min 0,0 UV-I 7,0 C 8,8 C 2,1 km/h (1 Bft)
02.10.2012 04:20 8,9 C 18,9 C 9,6 C 8,9 C 8,9 C 0,0 C 88 % 90 % 0 % 1016,9 hPa 0,0 l/m 0,0 km/h (0 Bft) N-NO 22 0 min 0,0 UV-I 7,0 C 8,9 C 0,0 km/h (0 Bft)
02.10.2012 04:25 8,8 C 18,9 C 9,7 C 8,9 C 8,9 C 0,1 C 88 % 90 % 0 % 1017,2 hPa 0,0 l/m 0,0 km/h (0 Bft) S-SO 157 0 min 0,0 UV-I 6,9 C 8,9 C 0,0 km/h (0 Bft)
02.10.2012 04:30 8,8 C 18,9 C 9,7 C 8,9 C 8,9 C 0,1 C 88 % 90 % 0 % 1017,2 hPa 0,0 l/m 0,0 km/h (0 Bft) S-SO 157 0 min 0,0 UV-I 6,9 C 8,9 C 0,0 km/h (0 Bft)
02.10.2012 04:35 8,7 C 18,9 C 9,7 C 8,9 C 8,9 C 0,2 C 88 % 90 % 0 % 1017,2 hPa 0,0 l/m 0,0 km/h (0 Bft) NO 45 0 min 0,0 UV-I 6,8 C 8,9 C 0,0 km/h (0 Bft)
02.10.2012 04:40 8,7 C 18,9 C 9,7 C 8,9 C 8,9 C 0,2 C 88 % 90 % 0 % 1017,2 hPa 0,0 l/m 0,0 km/h (0 Bft) NO 45 0 min 0,0 UV-I 6,8 C 8,9 C 0,0 km/h (0 Bft)
02.10.2012 04:45 8,7 C 18,9 C 9,7 C 9,0 C 9,0 C 0,3 C 88 % 91 % 0 % 1017,2 hPa 0,0 l/m 0,0 km/h (0 Bft) S-SW 202 0 min 0,0 UV-I 6,8 C 9,0 C 0,0 km/h (0 Bft)
02.10.2012 04:47 8,7 C 18,9 C 9,8 C 9,0 C 9,0 C 0,3 C 88 % 91 % 0 % 1017,2 hPa 0,0 l/m 0,0 km/h (0 Bft) W 270 0 min 0,0 UV-I 6,8 C 9,0 C 0,0 km/h (0 Bft)
02.10.2012 04:50 8,7 C 18,9 C 9,8 C 8,9 C 8,9 C 0,2 C 88 % 91 % 0 % 1017,2 hPa 0,0 l/m 0,0 km/h (0 Bft) SW 225 0 min 0,0 UV-I 6,8 C 8,9 C 0,0 km/h (0 Bft)
02.10.2012 04:55 8,7 C 18,9 C 9,8 C 8,9 C 8,9 C 0,2 C 88 % 91 % 0 % 1017,2 hPa 0,0 l/m 0,0 km/h (0 Bft) SW 225 0 min 0,0 UV-I 6,8 C 8,9 C 0,0 km/h (0 Bft)
02.10.2012 05:00 8,7 C 18,9 C 9,7 C 8,8 C 8,8 C 0,1 C 88 % 91 % 0 % 1017,2 hPa 0,0 l/m 0,0 km/h (0 Bft) S 180 0 min 0,0 UV-I 6,8 C 8,8 C 0,0 km/h (0 Bft)
02.10.2012 05:05 8,7 C 18,9 C 9,7 C 8,8 C 8,8 C 0,1 C 88 % 90 % 0 % 1017,5 hPa 0,0 l/m 0,0 km/h (0 Bft) S 180 0 min 0,0 UV-I 6,8 C 8,8 C 0,0 km/h (0 Bft)
02.10.2012 05:10 8,5 C 18,9 C 9,5 C 8,7 C 8,7 C 0,2 C 88 % 90 % 0 % 1017,5 hPa 0,0 l/m 0,0 km/h (0 Bft) W 270 0 min 0,0 UV-I 6,6 C 8,7 C 0,0 km/h (0 Bft)
02.10.2012 05:15 8,4 C 18,9 C 9,5 C 8,6 C 8,6 C 0,2 C 88 % 91 % 0 % 1017,5 hPa 0,0 l/m 0,0 km/h (0 Bft) O-NO 67 0 min 0,0 UV-I 6,5 C 8,6 C 0,0 km/h (0 Bft)
02.10.2012 05:20 8,4 C 18,9 C 9,5 C 8,6 C 8,6 C 0,2 C 89 % 91 % 0 % 1017,5 hPa 0,0 l/m 0,0 km/h (0 Bft) O-SO 112 0 min 0,0 UV-I 6,7 C 8,6 C 0,0 km/h (0 Bft)
02.10.2012 05:25 8,4 C 18,9 C 9,5 C 8,6 C 8,6 C 0,2 C 89 % 91 % 0 % 1017,2 hPa 0,0 l/m 0,0 km/h (0 Bft) O-NO 67 0 min 0,0 UV-I 6,7 C 8,6 C 0,0 km/h (0 Bft)
02.10.2012 05:30 8,5 C 18,9 C 9,3 C 8,7 C 8,7 C 0,2 C 89 % 91 % 0 % 1017,2 hPa 0,0 l/m 0,0 km/h (0 Bft) O-SO 112 0 min 0,0 UV-I 6,8 C 8,7 C 0,0 km/h (0 Bft)
02.10.2012 05:35 8,5 C 18,9 C 9,5 C 8,8 C 8,8 C 0,3 C 89 % 91 % 0 % 1017,2 hPa 0,0 l/m 0,0 km/h (0 Bft) O 90 0 min 0,0 UV-I 6,8 C 8,8 C 0,0 km/h (0 Bft)
02.10.2012 05:40 8,5 C 18,9 C 9,3 C 8,7 C 8,7 C 0,2 C 89 % 91 % 0 % 1017,2 hPa 0,0 l/m 0,0 km/h (0 Bft) O-SO 112 0 min 0,0 UV-I 6,8 C 8,7 C 0,0 km/h (0 Bft)
02.10.2012 05:45 8,5 C 18,9 C 9,2 C 8,7 C 8,7 C 0,2 C 89 % 91 % 0 % 1017,4 hPa 0,0 l/m 0,0 km/h (0 Bft) O-NO 67 0 min 0,0 UV-I 6,8 C 8,7 C 0,0 km/h (0 Bft)
02.10.2012 05:50 8,5 C 18,9 C 9,1 C 8,7 C 8,7 C 0,2 C 89 % 91 % 0 % 1017,4 hPa 0,0 l/m 0,0 km/h (0 Bft) O-NO 67 0 min 0,0 UV-I 6,8 C 8,7 C 0,0 km/h (0 Bft)
02.10.2012 05:55 8,3 C 18,9 C 9,2 C 8,6 C 8,6 C 0,3 C 89 % 91 % 0 % 1017,4 hPa 0,0 l/m 0,0 km/h (0 Bft) O-NO 67 0 min 0,0 UV-I 6,6 C 8,6 C 0,0 km/h (0 Bft)
02.10.2012 06:00 8,3 C 18,9 C 9,1 C 8,5 C 8,5 C 0,2 C 89 % 91 % 0 % 1017,4 hPa 0,0 l/m 0,0 km/h (0 Bft) O 90 0 min 0,0 UV-I 6,6 C 8,5 C 0,0 km/h (0 Bft)
02.10.2012 06:05 8,4 C 18,9 C 9,1 C 8,5 C 8,5 C 0,1 C 89 % 91 % 0 % 1017,5 hPa 0,0 l/m 0,0 km/h (0 Bft) O 90 0 min 0,0 UV-I 6,7 C 8,5 C 0,0 km/h (0 Bft)
02.10.2012 06:10 8,3 C 18,9 C 9,0 C 8,5 C 8,5 C 0,2 C 89 % 91 % 0 % 1017,5 hPa 0,0 l/m 0,0 km/h (0 Bft) O-SO 112 0 min 0,0 UV-I 6,6 C 8,5 C 0,0 km/h (0 Bft)
02.10.2012 06:15 8,3 C 18,9 C 9,1 C 8,5 C 8,5 C 0,2 C 89 % 91 % 0 % 1017,5 hPa 0,0 l/m 0,0 km/h (0 Bft) O 90 0 min 0,0 UV-I 6,6 C 8,5 C 0,0 km/h (0 Bft)
02.10.2012 06:20 8,3 C 18,9 C 8,9 C 8,5 C 8,5 C 0,2 C 89 % 91 % 0 % 1017,5 hPa 0,0 l/m 0,0 km/h (0 Bft) NO 45 0 min 0,0 UV-I 6,6 C 8,5 C 0,0 km/h (0 Bft)
02.10.2012 06:25 8,3 C 18,9 C 8,9 C 8,5 C 8,5 C 0,2 C 89 % 91 % 0 % 1017,4 hPa 0,0 l/m 0,0 km/h (0 Bft) NW 315 0 min 0,0 UV-I 6,6 C 8,5 C 0,0 km/h (0 Bft)
02.10.2012 06:30 8,3 C 18,9 C 9,1 C 8,5 C 8,5 C 0,2 C 89 % 92 % 0 % 1017,4 hPa 0,0 l/m 0,0 km/h (0 Bft) N-NO 22 0 min 0,0 UV-I 6,6 C 8,5 C 0,0 km/h (0 Bft)
02.10.2012 06:35 8,3 C 18,9 C 9,1 C 8,5 C 8,5 C 0,2 C 89 % 92 % 0 % 1017,4 hPa 0,0 l/m 0,0 km/h (0 Bft) NO 45 0 min 0,0 UV-I 6,6 C 8,5 C 0,0 km/h (0 Bft)
02.10.2012 06:41 8,3 C 18,9 C 9,1 C 8,5 C 8,5 C 0,2 C 89 % 92 % 0 % 1017,4 hPa 0,0 l/m 0,0 km/h (0 Bft) N 0 0 min 0,0 UV-I 6,6 C 8,5 C 0,0 km/h (0 Bft)
02.10.2012 06:55 8,3 C 18,9 C 9,1 C 8,6 C 8,6 C 0,3 C 90 % 92 % 0 % 1017,4 hPa 0,0 l/m 0,0 km/h (0 Bft) O-SO 112 0 min 0,0 UV-I 6,8 C 8,6 C 0,0 km/h (0 Bft)
02.10.2012 07:00 8,2 C 18,9 C 9,1 C 8,6 C 8,6 C 0,4 C 90 % 92 % 0 % 1017,4 hPa 0,0 l/m 0,0 km/h (0 Bft) O-NO 67 0 min 0,0 UV-I 6,7 C 8,6 C 0,0 km/h (0 Bft)
02.10.2012 07:05 8,2 C 18,8 C 9,0 C 8,6 C 8,6 C 0,4 C 90 % 92 % 0 % 1017,1 hPa 0,0 l/m 0,0 km/h (0 Bft) O-SO 112 0 min 0,0 UV-I 6,7 C 8,6 C 0,0 km/h (0 Bft)
02.10.2012 07:10 8,3 C 18,8 C 8,9 C 8,6 C 8,6 C 0,3 C 90 % 92 % 0 % 1017,1 hPa 0,0 l/m 0,0 km/h (0 Bft) O-NO 67 0 min 0,0 UV-I 6,8 C 8,6 C 0,0 km/h (0 Bft)
02.10.2012 07:15 8,2 C 18,8 C 8,9 C 8,5 C 8,5 C 0,3 C 90 % 92 % 0 % 1017,1 hPa 0,0 l/m 0,0 km/h (0 Bft) NO 45 0 min 0,0 UV-I 6,7 C 8,5 C 0,0 km/h (0 Bft)
02.10.2012 07:20 8,1 C 18,8 C 8,9 C 8,4 C 8,4 C 0,3 C 90 % 92 % 0 % 1017,1 hPa 0,0 l/m 0,0 km/h (0 Bft) O 90 0 min 0,0 UV-I 6,6 C 8,4 C 0,0 km/h (0 Bft)
02.10.2012 07:25 8,0 C 18,8 C 8,9 C 8,4 C 8,4 C 0,4 C 90 % 92 % 11 % 1017,4 hPa 0,0 l/m 0,0 km/h (0 Bft) O-NO 67 5 min 0,0 UV-I 6,5 C 8,4 C 0,0 km/h (0 Bft)
02.10.2012 07:30 8,0 C 18,8 C 8,8 C 8,4 C 8,4 C 0,4 C 90 % 92 % 11 % 1017,4 hPa 0,0 l/m 0,0 km/h (0 Bft) W-SW 247 5 min 0,0 UV-I 6,5 C 8,4 C 0,0 km/h (0 Bft)
02.10.2012 07:35 8,0 C 18,8 C 9,1 C 8,3 C 8,3 C 0,3 C 90 % 92 % 8 % 1017,4 hPa 0,0 l/m 0,0 km/h (0 Bft) SW 225 0 min 0,0 UV-I 6,5 C 8,3 C 0,0 km/h (0 Bft)
02.10.2012 07:40 8,1 C 18,8 C 9,1 C 8,4 C 8,4 C 0,3 C 90 % 92 % 8 % 1017,4 hPa 0,0 l/m 0,2 km/h (0 Bft) S-SO 157 0 min 0,0 UV-I 6,6 C 8,4 C 2,9 km/h (1 Bft)
02.10.2012 07:45 8,1 C 18,8 C 9,1 C 8,6 C 8,6 C 0,5 C 90 % 92 % 13 % 1017,1 hPa 0,0 l/m 0,2 km/h (0 Bft) S 180 0 min 0,0 UV-I 6,6 C 8,6 C 0,0 km/h (0 Bft)
02.10.2012 07:50 8,1 C 18,8 C 9,2 C 9,2 C 9,2 C 1,1 C 90 % 92 % 29 % 1017,1 hPa 0,0 l/m 0,2 km/h (0 Bft) W-SW 247 5 min 0,0 UV-I 6,6 C 9,2 C 0,0 km/h (0 Bft)
02.10.2012 07:55 8,3 C 18,8 C 9,3 C 9,8 C 9,8 C 1,5 C 90 % 92 % 39 % 1017,1 hPa 0,0 l/m 0,0 km/h (0 Bft) S-SW 202 5 min 0,0 UV-I 6,8 C 9,8 C 0,0 km/h (0 Bft)
02.10.2012 08:00 8,7 C 18,8 C 9,4 C 10,5 C 10,5 C 1,8 C 91 % 92 % 47 % 1017,1 hPa 0,0 l/m 0,0 km/h (0 Bft) SO 135 5 min 0,0 UV-I 7,3 C 10,5 C 0,0 km/h (0 Bft)
02.10.2012 08:05 8,9 C 18,8 C 9,4 C 10,8 C 10,8 C 1,9 C 91 % 92 % 50 % 1017,2 hPa 0,0 l/m 0,0 km/h (0 Bft) W-SW 247 5 min 0,0 UV-I 7,5 C 10,8 C 0,0 km/h (0 Bft)
02.10.2012 08:10 8,9 C 18,7 C 9,7 C 11,6 C 11,6 C 2,7 C 92 % 93 % 71 % 1017,2 hPa 0,0 l/m 0,2 km/h (0 Bft) S-SW 202 5 min 0,0 UV-I 7,7 C 11,6 C 0,0 km/h (0 Bft)
02.10.2012 08:15 9,1 C 18,6 C 9,9 C 11,9 C 11,9 C 2,8 C 91 % 93 % 74 % 1017,2 hPa 0,0 l/m 0,2 km/h (0 Bft) NO 45 5 min 0,0 UV-I 7,7 C 11,9 C 0,0 km/h (0 Bft)
02.10.2012 08:20 9,2 C 18,6 C 10,0 C 11,7 C 11,7 C 2,5 C 91 % 93 % 66 % 1017,2 hPa 0,0 l/m 0,0 km/h (0 Bft) S 180 5 min 0,0 UV-I 7,8 C 11,7 C 0,0 km/h (0 Bft)
02.10.2012 08:25 9,2 C 18,6 C 10,3 C 11,4 C 11,4 C 2,2 C 92 % 93 % 58 % 1016,9 hPa 0,0 l/m 0,2 km/h (0 Bft) W 270 5 min 0,0 UV-I 8,0 C 11,4 C 0,0 km/h (0 Bft)
02.10.2012 08:30 9,5 C 18,5 C 10,4 C 11,5 C 11,5 C 2,0 C 92 % 93 % 53 % 1016,9 hPa 0,0 l/m 0,2 km/h (0 Bft) SW 225 5 min 0,0 UV-I 8,3 C 11,5 C 0,0 km/h (0 Bft)
02.10.2012 08:35 9,6 C 18,6 C 10,6 C 11,5 C 11,5 C 1,9 C 92 % 92 % 50 % 1016,9 hPa 0,0 l/m 0,2 km/h (0 Bft) S-SW 202 0 min 0,0 UV-I 8,4 C 11,5 C 0,0 km/h (0 Bft)
02.10.2012 08:40 9,7 C 18,5 C 10,7 C 11,5 C 11,5 C 1,8 C 92 % 92 % 47 % 1016,9 hPa 0,0 l/m 0,3 km/h (0 Bft) W-SW 247 0 min 0,0 UV-I 8,5 C 11,5 C 0,0 km/h (0 Bft)
02.10.2012 08:45 9,8 C 18,5 C 10,8 C 11,6 C 11,6 C 1,8 C 92 % 92 % 47 % 1016,9 hPa 0,0 l/m 0,3 km/h (0 Bft) O 90 0 min 0,0 UV-I 8,6 C 11,6 C 0,0 km/h (0 Bft)
02.10.2012 08:50 9,9 C 18,5 C 11,0 C 11,7 C 11,7 C 1,8 C 92 % 92 % 47 % 1016,9 hPa 0,0 l/m 0,5 km/h (0 Bft) W-SW 247 0 min 0,0 UV-I 8,7 C 11,7 C 5,1 km/h (1 Bft)
02.10.2012 08:55 10,0 C 18,5 C 11,2 C 11,8 C 11,8 C 1,8 C 92 % 92 % 47 % 1016,9 hPa 0,0 l/m 0,5 km/h (0 Bft) W-SW 247 0 min 0,0 UV-I 8,8 C 11,8 C 0,0 km/h (0 Bft)
02.10.2012 09:00 10,2 C 18,4 C 11,3 C 12,0 C 12,0 C 1,8 C 92 % 92 % 47 % 1016,9 hPa 0,0 l/m 0,6 km/h (0 Bft) SW 225 0 min 0,0 UV-I 9,0 C 12,0 C 6,8 km/h (2 Bft)
02.10.2012 09:05 10,5 C 18,3 C 11,5 C 12,1 C 12,1 C 1,6 C 92 % 92 % 42 % 1016,9 hPa 0,0 l/m 1,6 km/h (1 Bft) W-SW 247 0 min 0,0 UV-I 9,3 C 12,1 C 5,8 km/h (2 Bft)
02.10.2012 09:10 10,7 C 18,3 C 11,7 C 12,6 C 12,6 C 1,9 C 92 % 92 % 50 % 1016,9 hPa 0,0 l/m 2,7 km/h (1 Bft) S 180 0 min 0,0 UV-I 9,5 C 12,6 C 7,2 km/h (2 Bft)
02.10.2012 09:15 10,9 C 18,3 C 12,0 C 12,8 C 12,8 C 1,9 C 91 % 92 % 50 % 1016,9 hPa 0,0 l/m 2,4 km/h (1 Bft) S 180 0 min 0,0 UV-I 9,5 C 12,8 C 3,9 km/h (1 Bft)
02.10.2012 09:20 11,2 C 18,3 C 12,2 C 13,2 C 13,2 C 2,0 C 91 % 91 % 53 % 1016,9 hPa 0,0 l/m 2,3 km/h (1 Bft) SW 225 0 min 0,1 UV-I 9,8 C 13,2 C 3,5 km/h (1 Bft)
02.10.2012 09:25 11,4 C 18,3 C 12,4 C 13,7 C 13,7 C 2,3 C 91 % 91 % 61 % 1016,9 hPa 0,0 l/m 2,4 km/h (1 Bft) W-SW 247 0 min 0,1 UV-I 10,0 C 13,7 C 8,0 km/h (2 Bft)
02.10.2012 09:30 11,7 C 18,3 C 12,6 C 14,0 C 14,0 C 2,3 C 90 % 90 % 61 % 1016,9 hPa 0,0 l/m 2,9 km/h (1 Bft) SW 225 0 min 0,1 UV-I 10,1 C 14,0 C 8,9 km/h (2 Bft)
02.10.2012 09:35 11,9 C 18,2 C 12,7 C 14,2 C 14,2 C 2,3 C 88 % 90 % 61 % 1016,9 hPa 0,0 l/m 3,7 km/h (1 Bft) S 180 0 min 0,1 UV-I 10,0 C 14,2 C 4,2 km/h (1 Bft)
02.10.2012 09:40 12,3 C 18,2 C 12,8 C 14,4 C 14,4 C 2,1 C 87 % 89 % 55 % 1016,9 hPa 0,0 l/m 4,7 km/h (1 Bft) W-SW 247 0 min 0,2 UV-I 10,2 C 14,4 C 11,4 km/h (2 Bft)
02.10.2012 09:45 12,4 C 18,3 C 12,8 C 14,5 C 14,5 C 2,1 C 86 % 89 % 55 % 1017,2 hPa 0,0 l/m 4,0 km/h (1 Bft) S 180 0 min 0,2 UV-I 10,1 C 14,5 C 7,4 km/h (2 Bft)
02.10.2012 09:50 12,6 C 18,2 C 13,1 C 14,8 C 14,8 C 2,2 C 85 % 89 % 58 % 1017,2 hPa 0,0 l/m 2,3 km/h (1 Bft) W-SW 247 0 min 0,2 UV-I 10,1 C 14,8 C 3,4 km/h (1 Bft)
02.10.2012 09:55 12,7 C 18,2 C 13,1 C 14,9 C 14,9 C 2,2 C 84 % 88 % 58 % 1017,2 hPa 0,0 l/m 2,3 km/h (1 Bft) W-SW 247 0 min 0,3 UV-I 10,1 C 14,9 C 5,1 km/h (1 Bft)
02.10.2012 10:00 13,0 C 18,2 C 13,2 C 15,1 C 15,1 C 2,1 C 82 % 88 % 55 % 1017,2 hPa 0,0 l/m 3,2 km/h (1 Bft) N-NW 337 0 min 0,3 UV-I 10,0 C 15,1 C 11,7 km/h (2 Bft)
02.10.2012 10:05 13,2 C 18,2 C 13,2 C 15,3 C 15,3 C 2,1 C 82 % 88 % 55 % 1017,4 hPa 0,0 l/m 3,7 km/h (1 Bft) SW 225 0 min 0,3 UV-I 10,2 C 15,3 C 2,7 km/h (1 Bft)
02.10.2012 10:10 13,5 C 18,2 C 13,5 C 15,5 C 15,5 C 2,0 C 80 % 87 % 53 % 1017,4 hPa 0,0 l/m 4,2 km/h (1 Bft) SO 135 0 min 0,4 UV-I 10,1 C 15,5 C 11,9 km/h (2 Bft)
02.10.2012 10:15 13,7 C 18,2 C 13,7 C 15,6 C 15,6 C 1,9 C 79 % 86 % 50 % 1017,4 hPa 0,0 l/m 5,6 km/h (1 Bft) SW 225 0 min 0,4 UV-I 10,1 C 15,6 C 11,4 km/h (2 Bft)
02.10.2012 10:20 14,0 C 18,2 C 13,6 C 15,6 C 15,6 C 1,6 C 77 % 86 % 42 % 1017,4 hPa 0,0 l/m 7,2 km/h (2 Bft) SW 225 0 min 0,4 UV-I 10,0 C 15,6 C 17,1 km/h (3 Bft)
02.10.2012 10:25 14,1 C 18,2 C 13,7 C 15,6 C 15,6 C 1,5 C 77 % 85 % 39 % 1017,4 hPa 0,0 l/m 8,2 km/h (2 Bft) SW 225 0 min 0,5 UV-I 10,1 C 15,6 C 22,2 km/h (4 Bft)
02.10.2012 10:30 14,3 C 18,2 C 13,9 C 15,7 C 15,7 C 1,4 C 75 % 84 % 37 % 1017,4 hPa 0,0 l/m 7,1 km/h (2 Bft) W 270 0 min 0,5 UV-I 9,9 C 15,7 C 9,2 km/h (2 Bft)
02.10.2012 10:35 14,3 C 18,2 C 13,8 C 15,6 C 15,6 C 1,3 C 75 % 84 % 34 % 1017,4 hPa 0,0 l/m 6,3 km/h (2 Bft) W-SW 247 0 min 0,6 UV-I 9,9 C 15,6 C 10,0 km/h (2 Bft)
02.10.2012 10:40 14,4 C 18,2 C 13,9 C 15,6 C 15,6 C 1,2 C 75 % 83 % 32 % 1017,4 hPa 0,0 l/m 6,4 km/h (2 Bft) SW 225 0 min 0,6 UV-I 10,0 C 15,6 C 15,4 km/h (3 Bft)
02.10.2012 10:45 14,4 C 18,2 C 13,9 C 15,6 C 15,6 C 1,2 C 74 % 83 % 32 % 1017,7 hPa 0,0 l/m 6,9 km/h (2 Bft) SW 225 0 min 0,7 UV-I 9,8 C 15,6 C 12,6 km/h (3 Bft)
02.10.2012 10:50 14,7 C 18,2 C 14,1 C 15,7 C 15,7 C 1,0 C 72 % 82 % 26 % 1017,7 hPa 0,0 l/m 7,6 km/h (2 Bft) O 90 0 min 0,7 UV-I 9,7 C 15,7 C 3,5 km/h (1 Bft)
02.10.2012 10:55 14,7 C 18,2 C 14,1 C 15,8 C 15,8 C 1,1 C 72 % 82 % 29 % 1017,7 hPa 0,0 l/m 7,4 km/h (2 Bft) W 270 0 min 0,7 UV-I 9,7 C 15,8 C 6,8 km/h (2 Bft)
02.10.2012 11:00 14,7 C 18,2 C 14,0 C 15,6 C 15,6 C 0,9 C 71 % 81 % 24 % 1017,7 hPa 0,0 l/m 6,6 km/h (2 Bft) SW 225 0 min 0,7 UV-I 9,5 C 15,6 C 7,4 km/h (2 Bft)
02.10.2012 11:05 14,6 C 18,2 C 13,9 C 15,4 C 15,4 C 0,8 C 71 % 81 % 21 % 1017,4 hPa 0,0 l/m 6,8 km/h (2 Bft) SW 225 0 min 0,7 UV-I 9,4 C 15,4 C 8,4 km/h (2 Bft)
02.10.2012 11:10 14,7 C 18,3 C 13,9 C 15,4 C 15,4 C 0,7 C 72 % 81 % 18 % 1017,4 hPa 0,0 l/m 5,6 km/h (1 Bft) W-SW 247 0 min 0,7 UV-I 9,7 C 15,4 C 4,8 km/h (1 Bft)
02.10.2012 11:15 14,7 C 18,3 C 14,1 C 15,5 C 15,5 C 0,8 C 71 % 80 % 21 % 1017,4 hPa 0,0 l/m 6,1 km/h (2 Bft) W 270 0 min 0,8 UV-I 9,5 C 15,5 C 10,8 km/h (2 Bft)
02.10.2012 11:20 14,8 C 18,3 C 14,0 C 15,6 C 15,6 C 0,8 C 70 % 79 % 21 % 1017,4 hPa 0,0 l/m 7,9 km/h (2 Bft) SO 135 0 min 0,9 UV-I 9,4 C 15,6 C 2,9 km/h (1 Bft)
02.10.2012 11:25 14,8 C 18,3 C 14,0 C 15,6 C 15,6 C 0,8 C 70 % 79 % 21 % 1018,1 hPa 0,0 l/m 8,4 km/h (2 Bft) W-SW 247 0 min 0,9 UV-I 9,4 C 15,6 C 10,9 km/h (2 Bft)
02.10.2012 11:30 14,8 C 18,3 C 14,1 C 15,6 C 15,6 C 0,8 C 70 % 79 % 21 % 1018,1 hPa 0,0 l/m 7,1 km/h (2 Bft) SW 225 0 min 0,9 UV-I 9,4 C 15,6 C 7,9 km/h (2 Bft)
02.10.2012 11:35 14,9 C 18,3 C 14,2 C 15,7 C 15,7 C 0,8 C 70 % 79 % 21 % 1018,1 hPa 0,0 l/m 6,1 km/h (2 Bft) O-SO 112 0 min 1,0 UV-I 9,5 C 15,7 C 7,9 km/h (2 Bft)
02.10.2012 11:40 15,0 C 18,3 C 14,3 C 16,0 C 16,0 C 1,0 C 70 % 79 % 26 % 1018,1 hPa 0,0 l/m 3,7 km/h (1 Bft) SO 135 0 min 1,0 UV-I 9,6 C 16,0 C 1,8 km/h (1 Bft)
02.10.2012 11:45 15,3 C 18,3 C 14,4 C 16,2 C 16,2 C 0,9 C 70 % 78 % 24 % 1017,4 hPa 0,0 l/m 3,4 km/h (1 Bft) SO 135 0 min 1,1 UV-I 9,9 C 16,2 C 3,5 km/h (1 Bft)
02.10.2012 11:50 15,3 C 18,3 C 14,6 C 16,3 C 16,3 C 1,0 C 68 % 77 % 26 % 1017,4 hPa 0,0 l/m 5,3 km/h (1 Bft) SW 225 0 min 1,2 UV-I 9,4 C 16,3 C 7,2 km/h (2 Bft)
02.10.2012 11:55 15,4 C 18,3 C 14,7 C 16,5 C 16,5 C 1,1 C 69 % 77 % 29 % 1017,4 hPa 0,0 l/m 4,7 km/h (1 Bft) W-SW 247 0 min 1,2 UV-I 9,7 C 16,5 C 3,1 km/h (1 Bft)
02.10.2012 12:00 15,6 C 18,3 C 14,9 C 16,8 C 16,8 C 1,2 C 67 % 76 % 32 % 1017,4 hPa 0,0 l/m 3,7 km/h (1 Bft) SW 225 0 min 1,2 UV-I 9,5 C 16,8 C 10,8 km/h (2 Bft)
02.10.2012 12:05 15,7 C 18,3 C 14,9 C 16,9 C 16,9 C 1,2 C 65 % 75 % 32 % 1017,4 hPa 0,0 l/m 6,3 km/h (2 Bft) S-SW 202 0 min 1,4 UV-I 9,1 C 16,9 C 11,6 km/h (2 Bft)
02.10.2012 12:10 15,9 C 18,2 C 15,2 C 17,4 C 17,4 C 1,5 C 67 % 75 % 39 % 1017,4 hPa 0,0 l/m 6,4 km/h (2 Bft) W 270 0 min 1,4 UV-I 9,8 C 17,4 C 3,9 km/h (1 Bft)
02.10.2012 12:15 16,1 C 18,3 C 15,5 C 17,7 C 17,7 C 1,6 C 67 % 75 % 42 % 1017,4 hPa 0,0 l/m 4,2 km/h (1 Bft) SO 135 0 min 1,5 UV-I 10,0 C 17,7 C 0,0 km/h (0 Bft)
02.10.2012 12:20 16,3 C 18,3 C 15,7 C 18,5 C 18,5 C 2,2 C 66 % 75 % 58 % 1017,4 hPa 0,0 l/m 2,6 km/h (1 Bft) W-SW 247 0 min 1,6 UV-I 9,9 C 18,5 C 9,0 km/h (2 Bft)
02.10.2012 12:25 16,4 C 18,3 C 15,8 C 18,6 C 18,6 C 2,2 C 66 % 74 % 58 % 1017,6 hPa 0,0 l/m 3,7 km/h (1 Bft) SW 225 0 min 1,5 UV-I 10,0 C 18,6 C 6,1 km/h (2 Bft)
02.10.2012 12:30 16,5 C 18,3 C 15,9 C 18,8 C 18,8 C 2,3 C 66 % 74 % 61 % 1017,6 hPa 0,0 l/m 5,5 km/h (1 Bft) O-SO 112 0 min 1,9 UV-I 10,1 C 18,8 C 4,2 km/h (1 Bft)
02.10.2012 12:35 16,7 C 18,3 C 16,0 C 19,6 C 19,6 C 2,9 C 66 % 74 % 76 % 1017,6 hPa 0,0 l/m 4,7 km/h (1 Bft) W 270 0 min 1,8 UV-I 10,3 C 19,6 C 7,6 km/h (2 Bft)
02.10.2012 12:41 17,1 C 18,3 C 16,1 C 20,1 C 20,1 C 3,0 C 65 % 74 % 79 % 1017,3 hPa 0,0 l/m 3,9 km/h (1 Bft) N 0 0 min 1,7 UV-I 10,5 C 20,1 C 5,1 km/h (1 Bft)
02.10.2012 12:55 16,8 C 18,3 C 16,0 C 19,7 C 19,7 C 2,9 C 64 % 73 % 76 % 1017,3 hPa 0,0 l/m 5,5 km/h (1 Bft) S-SO 157 0 min 1,8 UV-I 10,0 C 19,7 C 7,7 km/h (2 Bft)
02.10.2012 13:00 16,8 C 18,3 C 15,9 C 19,0 C 19,0 C 2,2 C 63 % 73 % 58 % 1017,3 hPa 0,0 l/m 6,3 km/h (2 Bft) W 270 0 min 1,6 UV-I 9,7 C 19,0 C 5,8 km/h (2 Bft)
02.10.2012 13:05 16,7 C 18,4 C 15,9 C 18,8 C 18,8 C 2,1 C 64 % 73 % 55 % 1017,2 hPa 0,0 l/m 6,0 km/h (2 Bft) W-SW 247 0 min 1,6 UV-I 9,9 C 18,8 C 4,7 km/h (1 Bft)
02.10.2012 13:10 16,8 C 18,4 C 16,0 C 19,3 C 19,3 C 2,5 C 63 % 72 % 66 % 1017,2 hPa 0,0 l/m 6,4 km/h (2 Bft) W-SW 247 0 min 1,7 UV-I 9,7 C 19,3 C 11,1 km/h (2 Bft)
02.10.2012 13:15 16,9 C 18,4 C 16,0 C 19,7 C 19,7 C 2,8 C 63 % 72 % 74 % 1017,2 hPa 0,0 l/m 7,1 km/h (2 Bft) W-SW 247 0 min 2,1 UV-I 9,8 C 19,7 C 7,1 km/h (2 Bft)
02.10.2012 13:20 16,9 C 18,4 C 16,1 C 20,3 C 20,3 C 3,4 C 63 % 72 % 89 % 1017,2 hPa 0,0 l/m 6,3 km/h (2 Bft) O-NO 67 5 min 1,8 UV-I 9,8 C 20,3 C 5,5 km/h (1 Bft)
02.10.2012 13:25 17,0 C 18,4 C 16,3 C 20,9 C 20,9 C 3,9 C 62 % 71 % 100 % 1017,4 hPa 0,0 l/m 5,1 km/h (1 Bft) S-SO 157 5 min 1,6 UV-I 9,7 C 20,9 C 13,4 km/h (3 Bft)
02.10.2012 13:30 17,2 C 18,4 C 16,3 C 21,2 C 21,2 C 4,0 C 62 % 71 % 100 % 1017,4 hPa 0,0 l/m 4,3 km/h (1 Bft) S-SW 202 5 min 1,5 UV-I 9,9 C 21,2 C 2,9 km/h (1 Bft)
02.10.2012 13:35 17,3 C 18,4 C 16,4 C 21,6 C 21,6 C 4,3 C 62 % 71 % 100 % 1017,4 hPa 0,0 l/m 4,8 km/h (1 Bft) S 180 5 min 1,5 UV-I 9,9 C 21,6 C 12,4 km/h (3 Bft)
02.10.2012 13:40 17,5 C 18,4 C 16,5 C 21,9 C 21,9 C 4,4 C 60 % 70 % 100 % 1017,4 hPa 0,0 l/m 3,7 km/h (1 Bft) S-SO 157 5 min 1,7 UV-I 9,6 C 21,9 C 2,7 km/h (1 Bft)
02.10.2012 13:45 17,5 C 18,4 C 16,6 C 21,9 C 21,9 C 4,4 C 60 % 69 % 100 % 1017,6 hPa 0,0 l/m 3,5 km/h (1 Bft) O-SO 112 5 min 1,8 UV-I 9,6 C 21,9 C 4,5 km/h (1 Bft)
02.10.2012 13:50 17,5 C 18,4 C 16,6 C 22,0 C 22,0 C 4,5 C 60 % 68 % 100 % 1017,6 hPa 0,0 l/m 2,7 km/h (1 Bft) W-SW 247 5 min 1,4 UV-I 9,6 C 22,0 C 2,7 km/h (1 Bft)
02.10.2012 13:55 17,5 C 18,4 C 16,6 C 22,2 C 22,2 C 4,7 C 60 % 68 % 100 % 1017,6 hPa 0,0 l/m 2,9 km/h (1 Bft) W-SW 247 5 min 1,4 UV-I 9,6 C 22,2 C 10,1 km/h (2 Bft)
02.10.2012 14:00 17,6 C 18,5 C 16,5 C 21,4 C 21,4 C 3,8 C 58 % 68 % 100 % 1017,6 hPa 0,0 l/m 4,0 km/h (1 Bft) W-SW 247 5 min 1,4 UV-I 9,2 C 21,4 C 3,7 km/h (1 Bft)
02.10.2012 14:05 17,5 C 18,5 C 16,5 C 20,6 C 20,6 C 3,1 C 59 % 68 % 82 % 1017,3 hPa 0,0 l/m 4,2 km/h (1 Bft) SW 225 0 min 1,2 UV-I 9,4 C 20,6 C 3,5 km/h (1 Bft)
02.10.2012 14:10 17,6 C 18,5 C 16,6 C 20,8 C 20,8 C 3,2 C 59 % 68 % 84 % 1017,3 hPa 0,0 l/m 2,1 km/h (1 Bft) W-SW 247 0 min 1,3 UV-I 9,5 C 20,8 C 2,3 km/h (1 Bft)
02.10.2012 14:15 17,7 C 18,5 C 16,5 C 20,7 C 20,7 C 3,0 C 60 % 68 % 79 % 1017,3 hPa 0,0 l/m 1,4 km/h (1 Bft) S 180 0 min 1,3 UV-I 9,8 C 20,7 C 1,9 km/h (1 Bft)
02.10.2012 14:20 17,7 C 18,5 C 16,8 C 21,5 C 21,5 C 3,8 C 60 % 69 % 100 % 1017,3 hPa 0,0 l/m 1,3 km/h (1 Bft) W 270 5 min 1,3 UV-I 9,8 C 21,5 C 3,4 km/h (1 Bft)
02.10.2012 14:25 17,9 C 18,5 C 17,1 C 22,8 C 22,8 C 4,9 C 59 % 69 % 100 % 1017,2 hPa 0,0 l/m 1,9 km/h (1 Bft) S 180 5 min 1,4 UV-I 9,8 C 22,8 C 5,5 km/h (1 Bft)
02.10.2012 14:30 18,0 C 18,5 C 17,2 C 22,8 C 22,8 C 4,8 C 59 % 68 % 100 % 1017,2 hPa 0,0 l/m 3,2 km/h (1 Bft) NW 315 5 min 1,4 UV-I 9,9 C 22,8 C 2,7 km/h (1 Bft)
02.10.2012 14:35 18,0 C 18,6 C 17,2 C 23,0 C 23,0 C 5,0 C 58 % 67 % 100 % 1017,2 hPa 0,0 l/m 2,9 km/h (1 Bft) W-NW 292 5 min 1,3 UV-I 9,6 C 23,0 C 5,5 km/h (1 Bft)
02.10.2012 14:40 18,3 C 18,5 C 17,3 C 23,3 C 23,3 C 5,0 C 56 % 66 % 100 % 1017,2 hPa 0,0 l/m 3,5 km/h (1 Bft) W-NW 292 5 min 1,1 UV-I 9,4 C 23,3 C 3,7 km/h (1 Bft)
02.10.2012 14:45 18,3 C 18,5 C 17,4 C 23,1 C 23,1 C 4,8 C 56 % 67 % 100 % 1017,0 hPa 0,0 l/m 5,5 km/h (1 Bft) O-NO 67 5 min 1,1 UV-I 9,4 C 23,1 C 13,0 km/h (3 Bft)
02.10.2012 14:50 18,5 C 18,5 C 17,6 C 22,9 C 22,9 C 4,4 C 55 % 65 % 100 % 1017,0 hPa 0,0 l/m 7,4 km/h (2 Bft) W 270 5 min 1,0 UV-I 9,3 C 22,9 C 6,8 km/h (2 Bft)
02.10.2012 14:55 18,5 C 18,5 C 17,7 C 22,9 C 22,9 C 4,4 C 55 % 65 % 100 % 1017,0 hPa 0,0 l/m 7,6 km/h (2 Bft) W-SW 247 5 min 1,0 UV-I 9,3 C 22,9 C 8,0 km/h (2 Bft)
02.10.2012 15:00 18,6 C 18,6 C 17,8 C 23,4 C 23,4 C 4,8 C 55 % 64 % 100 % 1017,0 hPa 0,0 l/m 4,5 km/h (1 Bft) W-SW 247 5 min 1,0 UV-I 9,4 C 23,4 C 1,9 km/h (1 Bft)
02.10.2012 15:05 18,9 C 18,6 C 17,9 C 23,8 C 23,8 C 4,9 C 55 % 63 % 100 % 1016,9 hPa 0,0 l/m 3,4 km/h (1 Bft) W-SW 247 5 min 1,0 UV-I 9,7 C 23,8 C 2,6 km/h (1 Bft)
02.10.2012 15:10 19,0 C 18,6 C 18,0 C 23,8 C 23,8 C 4,8 C 54 % 64 % 100 % 1016,9 hPa 0,0 l/m 3,2 km/h (1 Bft) SW 225 5 min 0,9 UV-I 9,5 C 23,8 C 7,2 km/h (2 Bft)
02.10.2012 15:15 19,3 C 18,6 C 17,9 C 23,8 C 23,8 C 4,5 C 54 % 64 % 100 % 1016,9 hPa 0,0 l/m 4,0 km/h (1 Bft) W 270 5 min 0,9 UV-I 9,8 C 23,8 C 6,3 km/h (2 Bft)
02.10.2012 15:20 19,4 C 18,6 C 18,3 C 23,8 C 23,8 C 4,4 C 53 % 62 % 100 % 1016,9 hPa 0,0 l/m 4,5 km/h (1 Bft) N-NW 337 5 min 0,8 UV-I 9,6 C 23,8 C 1,9 km/h (1 Bft)
02.10.2012 15:25 19,4 C 18,6 C 18,3 C 23,9 C 23,9 C 4,5 C 52 % 62 % 100 % 1017,1 hPa 0,0 l/m 4,7 km/h (1 Bft) W-SW 247 5 min 0,8 UV-I 9,3 C 23,9 C 10,8 km/h (2 Bft)
02.10.2012 15:30 19,5 C 18,6 C 18,3 C 23,6 C 23,6 C 4,1 C 52 % 62 % 100 % 1017,1 hPa 0,0 l/m 4,3 km/h (1 Bft) SW 225 5 min 0,8 UV-I 9,4 C 23,6 C 8,5 km/h (2 Bft)
02.10.2012 15:35 19,7 C 18,6 C 18,3 C 23,3 C 23,3 C 3,6 C 52 % 61 % 95 % 1017,1 hPa 0,0 l/m 4,2 km/h (1 Bft) W-NW 292 5 min 0,7 UV-I 9,6 C 23,3 C 6,0 km/h (2 Bft)
02.10.2012 15:40 20,0 C 18,6 C 18,2 C 23,3 C 23,3 C 3,3 C 50 % 62 % 87 % 1017,1 hPa 0,0 l/m 5,1 km/h (1 Bft) S-SW 202 5 min 0,7 UV-I 9,3 C 23,3 C 6,1 km/h (2 Bft)
02.10.2012 15:45 20,3 C 18,7 C 18,3 C 23,0 C 23,0 C 2,7 C 49 % 61 % 71 % 1016,8 hPa 0,0 l/m 5,8 km/h (2 Bft) S-SW 202 0 min 0,7 UV-I 9,2 C 23,0 C 8,9 km/h (2 Bft)
02.10.2012 15:50 20,5 C 18,7 C 18,3 C 23,0 C 23,0 C 2,5 C 49 % 61 % 66 % 1016,8 hPa 0,0 l/m 5,6 km/h (1 Bft) W 270 0 min 0,7 UV-I 9,4 C 23,0 C 6,4 km/h (2 Bft)
02.10.2012 15:55 20,7 C 18,7 C 18,4 C 23,1 C 23,1 C 2,4 C 50 % 61 % 63 % 1016,8 hPa 0,0 l/m 5,5 km/h (1 Bft) SW 225 0 min 0,7 UV-I 9,9 C 23,1 C 4,0 km/h (1 Bft)
02.10.2012 16:00 21,2 C 18,7 C 18,6 C 23,9 C 23,9 C 2,7 C 49 % 61 % 71 % 1016,8 hPa 0,0 l/m 4,2 km/h (1 Bft) SO 135 0 min 0,7 UV-I 10,1 C 23,9 C 4,3 km/h (1 Bft)
02.10.2012 16:05 21,3 C 18,7 C 18,6 C 24,2 C 24,2 C 2,9 C 48 % 61 % 76 % 1017,0 hPa 0,0 l/m 3,9 km/h (1 Bft) W-SW 247 0 min 0,6 UV-I 9,8 C 24,2 C 9,2 km/h (2 Bft)
02.10.2012 16:10 21,2 C 18,7 C 18,7 C 23,8 C 23,8 C 2,6 C 49 % 61 % 68 % 1017,0 hPa 0,0 l/m 4,2 km/h (1 Bft) O 90 0 min 0,5 UV-I 10,1 C 23,8 C 2,1 km/h (1 Bft)
02.10.2012 16:15 21,3 C 18,7 C 18,6 C 23,8 C 23,8 C 2,5 C 48 % 61 % 66 % 1017,0 hPa 0,0 l/m 4,3 km/h (1 Bft) W-SW 247 0 min 0,5 UV-I 9,8 C 23,8 C 5,8 km/h (2 Bft)
02.10.2012 16:20 21,3 C 18,7 C 18,6 C 23,7 C 23,7 C 2,4 C 49 % 61 % 63 % 1017,0 hPa 0,0 l/m 3,5 km/h (1 Bft) W 270 0 min 0,5 UV-I 10,1 C 23,7 C 5,0 km/h (1 Bft)
02.10.2012 16:25 21,3 C 18,8 C 18,5 C 23,3 C 23,3 C 2,0 C 48 % 61 % 53 % 1016,7 hPa 0,0 l/m 4,0 km/h (1 Bft) SW 225 0 min 0,4 UV-I 9,8 C 23,3 C 3,7 km/h (1 Bft)
02.10.2012 16:30 21,2 C 18,8 C 18,3 C 22,6 C 22,6 C 1,4 C 48 % 62 % 37 % 1016,7 hPa 0,0 l/m 4,0 km/h (1 Bft) W-SW 247 0 min 0,4 UV-I 9,7 C 22,6 C 7,1 km/h (2 Bft)
02.10.2012 16:35 20,8 C 18,8 C 18,3 C 22,2 C 22,2 C 1,4 C 49 % 62 % 37 % 1016,7 hPa 0,0 l/m 4,3 km/h (1 Bft) W-SW 247 0 min 0,3 UV-I 9,7 C 22,2 C 9,7 km/h (2 Bft)
02.10.2012 16:40 20,5 C 18,8 C 18,4 C 22,5 C 22,5 C 2,0 C 49 % 62 % 53 % 1016,7 hPa 0,0 l/m 5,0 km/h (1 Bft) SW 225 0 min 0,2 UV-I 9,4 C 22,5 C 7,6 km/h (2 Bft)
02.10.2012 16:45 20,3 C 18,8 C 18,5 C 22,5 C 22,5 C 2,2 C 48 % 61 % 58 % 1016,8 hPa 0,0 l/m 5,3 km/h (1 Bft) SW 225 0 min 0,2 UV-I 8,9 C 22,5 C 9,7 km/h (2 Bft)
02.10.2012 16:50 20,1 C 18,8 C 18,4 C 22,3 C 22,3 C 2,2 C 49 % 61 % 58 % 1016,8 hPa 0,0 l/m 5,5 km/h (1 Bft) W-SW 247 0 min 0,2 UV-I 9,0 C 22,3 C 4,8 km/h (1 Bft)
02.10.2012 16:55 20,0 C 18,8 C 18,5 C 22,5 C 22,5 C 2,5 C 50 % 61 % 66 % 1016,8 hPa 0,0 l/m 5,1 km/h (1 Bft) S-SW 202 0 min 0,1 UV-I 9,3 C 22,5 C 4,8 km/h (1 Bft)
02.10.2012 17:00 19,9 C 18,8 C 18,3 C 22,6 C 22,6 C 2,7 C 50 % 61 % 71 % 1016,8 hPa 0,0 l/m 4,5 km/h (1 Bft) S 180 5 min 0,1 UV-I 9,2 C 22,6 C 3,7 km/h (1 Bft)
02.10.2012 17:05 19,8 C 18,9 C 18,0 C 21,9 C 21,9 C 2,1 C 50 % 61 % 55 % 1016,7 hPa 0,0 l/m 4,2 km/h (1 Bft) W-NW 292 0 min 0,1 UV-I 9,1 C 21,9 C 1,6 km/h (1 Bft)
02.10.2012 17:10 19,4 C 18,9 C 17,7 C 20,4 C 20,4 C 1,0 C 51 % 62 % 26 % 1016,7 hPa 0,0 l/m 3,1 km/h (1 Bft) W-SW 247 0 min 0,0 UV-I 9,0 C 20,4 C 4,0 km/h (1 Bft)
02.10.2012 17:15 19,2 C 18,9 C 17,5 C 19,6 C 19,6 C 0,4 C 52 % 63 % 11 % 1016,7 hPa 0,0 l/m 2,3 km/h (1 Bft) W 270 0 min 0,0 UV-I 9,1 C 19,6 C 0,0 km/h (0 Bft)
02.10.2012 17:20 18,9 C 18,9 C 17,2 C 18,8 C 18,7 C 0,0 C 53 % 63 % 0 % 1016,7 hPa 0,0 l/m 1,1 km/h (1 Bft) S 180 0 min 0,0 UV-I 9,1 C 18,7 C 0,0 km/h (0 Bft)
02.10.2012 17:25 18,7 C 18,9 C 17,1 C 18,5 C 18,2 C 0,0 C 54 % 64 % 0 % 1016,8 hPa 0,0 l/m 0,2 km/h (0 Bft) W-NW 292 0 min 0,0 UV-I 9,2 C 18,2 C 0,0 km/h (0 Bft)
02.10.2012 17:30 18,4 C 18,9 C 16,9 C 18,2 C 17,8 C 0,0 C 55 % 65 % 0 % 1016,8 hPa 0,0 l/m 0,2 km/h (0 Bft) W 270 0 min 0,0 UV-I 9,2 C 17,8 C 0,0 km/h (0 Bft)
02.10.2012 17:35 18,3 C 19,0 C 16,8 C 18,1 C 17,7 C 0,0 C 55 % 65 % 0 % 1016,8 hPa 0,0 l/m 0,3 km/h (0 Bft) W-SW 247 0 min 0,0 UV-I 9,1 C 17,7 C 1,9 km/h (1 Bft)
02.10.2012 17:40 18,1 C 19,0 C 16,8 C 18,0 C 17,7 C 0,0 C 56 % 67 % 0 % 1016,8 hPa 0,0 l/m 0,5 km/h (0 Bft) W-SW 247 0 min 0,0 UV-I 9,2 C 17,7 C 1,8 km/h (1 Bft)
02.10.2012 17:45 18,1 C 19,0 C 16,8 C 18,2 C 18,2 C 0,1 C 57 % 68 % 3 % 1016,8 hPa 0,0 l/m 0,6 km/h (0 Bft) W-SW 247 0 min 0,0 UV-I 9,4 C 18,2 C 2,4 km/h (1 Bft)
02.10.2012 17:50 18,1 C 19,0 C 16,8 C 19,2 C 19,2 C 1,1 C 57 % 68 % 29 % 1016,8 hPa 0,0 l/m 1,1 km/h (1 Bft) S-SO 157 0 min 0,0 UV-I 9,4 C 19,2 C 1,6 km/h (1 Bft)
02.10.2012 17:55 18,1 C 19,1 C 16,9 C 19,8 C 19,8 C 1,7 C 58 % 68 % 45 % 1016,8 hPa 0,0 l/m 1,3 km/h (1 Bft) W-NW 292 5 min 0,0 UV-I 9,7 C 19,8 C 2,1 km/h (1 Bft)
02.10.2012 18:00 18,3 C 19,1 C 17,0 C 20,7 C 20,7 C 2,4 C 58 % 69 % 63 % 1016,8 hPa 0,0 l/m 1,6 km/h (1 Bft) W-SW 247 5 min 0,0 UV-I 9,9 C 20,7 C 2,6 km/h (1 Bft)
02.10.2012 18:05 18,2 C 19,1 C 17,1 C 20,7 C 20,7 C 2,5 C 58 % 69 % 66 % 1017,4 hPa 0,0 l/m 1,8 km/h (1 Bft) S-SW 202 5 min 0,0 UV-I 9,8 C 20,7 C 2,3 km/h (1 Bft)
02.10.2012 18:10 18,3 C 19,1 C 16,9 C 19,9 C 19,9 C 1,6 C 59 % 69 % 42 % 1017,4 hPa 0,0 l/m 1,1 km/h (1 Bft) W-SW 247 5 min 0,0 UV-I 10,1 C 19,9 C 0,0 km/h (0 Bft)
02.10.2012 18:15 18,2 C 19,1 C 16,9 C 19,8 C 19,8 C 1,6 C 59 % 70 % 42 % 1017,4 hPa 0,0 l/m 0,5 km/h (0 Bft) W-SW 247 5 min 0,0 UV-I 10,1 C 19,8 C 0,0 km/h (0 Bft)
02.10.2012 18:20 18,0 C 19,1 C 16,7 C 19,8 C 19,8 C 1,8 C 59 % 70 % 47 % 1017,4 hPa 0,0 l/m 0,2 km/h (0 Bft) O-SO 112 5 min 0,0 UV-I 9,9 C 19,8 C 1,6 km/h (1 Bft)
02.10.2012 18:25 17,9 C 19,1 C 16,4 C 19,5 C 19,5 C 1,6 C 59 % 70 % 42 % 1016,8 hPa 0,0 l/m 0,2 km/h (0 Bft) W 270 5 min 0,0 UV-I 9,8 C 19,5 C 0,0 km/h (0 Bft)
02.10.2012 18:30 17,7 C 19,1 C 16,2 C 18,8 C 18,8 C 1,1 C 60 % 71 % 29 % 1016,8 hPa 0,0 l/m 0,0 km/h (0 Bft) SW 225 5 min 0,0 UV-I 9,8 C 18,8 C 0,0 km/h (0 Bft)
02.10.2012 18:35 17,5 C 19,1 C 15,9 C 18,3 C 18,3 C 0,8 C 61 % 71 % 0 % 1016,8 hPa 0,0 l/m 0,0 km/h (0 Bft) O-NO 67 0 min 0,0 UV-I 9,9 C 18,3 C 0,0 km/h (0 Bft)
02.10.2012 18:41 16,8 C 19,2 C 15,5 C 16,7 C 16,5 C 0,0 C 62 % 72 % 0 % 1016,9 hPa 0,0 l/m 0,0 km/h (0 Bft) N 0 0 min 0,0 UV-I 9,5 C 16,5 C 0,0 km/h (0 Bft)
02.10.2012 18:55 16,2 C 19,2 C 14,9 C 15,8 C 15,1 C 0,0 C 64 % 73 % 0 % 1016,9 hPa 0,0 l/m 0,0 km/h (0 Bft) O-NO 67 0 min 0,0 UV-I 9,4 C 15,1 C 0,0 km/h (0 Bft)
02.10.2012 19:00 15,9 C 19,2 C 14,7 C 15,4 C 14,5 C 0,0 C 65 % 74 % 0 % 1016,9 hPa 0,0 l/m 0,0 km/h (0 Bft) O-NO 67 0 min 0,0 UV-I 9,3 C 14,5 C 0,0 km/h (0 Bft)
02.10.2012 19:05 15,6 C 19,2 C 14,5 C 15,1 C 14,1 C 0,0 C 66 % 75 % 0 % 1016,8 hPa 0,0 l/m 0,0 km/h (0 Bft) O-NO 67 0 min 0,0 UV-I 9,3 C 14,1 C 0,0 km/h (0 Bft)
02.10.2012 19:10 15,2 C 19,3 C 14,2 C 14,6 C 13,5 C 0,0 C 66 % 75 % 0 % 1016,8 hPa 0,0 l/m 0,0 km/h (0 Bft) O-NO 67 0 min 0,0 UV-I 8,9 C 13,5 C 0,0 km/h (0 Bft)
02.10.2012 19:15 14,9 C 19,3 C 14,0 C 14,3 C 13,1 C 0,0 C 68 % 75 % 0 % 1016,8 hPa 0,0 l/m 0,0 km/h (0 Bft) O-NO 67 0 min 0,0 UV-I 9,0 C 13,1 C 0,0 km/h (0 Bft)
02.10.2012 19:20 14,5 C 19,3 C 13,9 C 13,9 C 12,6 C 0,0 C 69 % 76 % 0 % 1016,8 hPa 0,0 l/m 0,0 km/h (0 Bft) W-SW 247 0 min 0,0 UV-I 8,9 C 12,6 C 0,0 km/h (0 Bft)
02.10.2012 19:25 14,3 C 19,3 C 13,7 C 13,6 C 12,2 C 0,0 C 70 % 76 % 0 % 1016,8 hPa 0,0 l/m 0,0 km/h (0 Bft) NW 315 0 min 0,0 UV-I 8,9 C 12,2 C 0,0 km/h (0 Bft)
02.10.2012 19:30 14,1 C 19,3 C 13,5 C 13,4 C 11,9 C 0,0 C 71 % 77 % 0 % 1016,8 hPa 0,0 l/m 0,0 km/h (0 Bft) SW 225 0 min 0,0 UV-I 8,9 C 11,9 C 0,0 km/h (0 Bft)
02.10.2012 19:35 13,8 C 19,3 C 13,5 C 13,1 C 11,8 C 0,0 C 72 % 78 % 0 % 1016,8 hPa 0,0 l/m 0,0 km/h (0 Bft) S-SW 202 0 min 0,0 UV-I 8,8 C 11,8 C 0,0 km/h (0 Bft)
02.10.2012 19:40 13,6 C 19,4 C 13,2 C 13,0 C 11,7 C 0,0 C 73 % 78 % 0 % 1016,8 hPa 0,0 l/m 0,0 km/h (0 Bft) O-SO 112 0 min 0,0 UV-I 8,9 C 11,7 C 0,0 km/h (0 Bft)
02.10.2012 19:45 13,5 C 19,4 C 12,9 C 12,8 C 11,5 C 0,0 C 73 % 79 % 0 % 1017,8 hPa 0,0 l/m 0,0 km/h (0 Bft) O-SO 112 0 min 0,0 UV-I 8,8 C 11,5 C 0,0 km/h (0 Bft)
02.10.2012 19:50 13,2 C 19,4 C 12,8 C 12,6 C 11,5 C 0,0 C 74 % 80 % 0 % 1017,8 hPa 0,0 l/m 0,0 km/h (0 Bft) O-NO 67 0 min 0,0 UV-I 8,7 C 11,5 C 0,0 km/h (0 Bft)
02.10.2012 19:55 13,0 C 19,4 C 12,6 C 12,5 C 11,5 C 0,0 C 75 % 80 % 0 % 1017,8 hPa 0,0 l/m 0,0 km/h (0 Bft) O 90 0 min 0,0 UV-I 8,7 C 11,5 C 0,0 km/h (0 Bft)
02.10.2012 20:00 12,9 C 19,4 C 12,3 C 12,4 C 11,4 C 0,0 C 75 % 81 % 0 % 1017,8 hPa 0,0 l/m 0,0 km/h (0 Bft) O 90 0 min 0,0 UV-I 8,6 C 11,4 C 0,0 km/h (0 Bft)
02.10.2012 20:05 12,8 C 19,4 C 12,3 C 12,4 C 11,5 C 0,0 C 76 % 81 % 0 % 1017,2 hPa 0,0 l/m 0,0 km/h (0 Bft) O 90 0 min 0,0 UV-I 8,7 C 11,5 C 0,0 km/h (0 Bft)
02.10.2012 20:10 12,7 C 19,4 C 12,0 C 12,3 C 11,5 C 0,0 C 76 % 81 % 0 % 1017,2 hPa 0,0 l/m 0,0 km/h (0 Bft) O-NO 67 0 min 0,0 UV-I 8,6 C 11,5 C 0,0 km/h (0 Bft)
02.10.2012 20:15 12,7 C 19,4 C 12,0 C 12,3 C 11,5 C 0,0 C 76 % 81 % 0 % 1017,2 hPa 0,0 l/m 0,2 km/h (0 Bft) O-NO 67 0 min 0,0 UV-I 8,6 C 11,5 C 0,0 km/h (0 Bft)
02.10.2012 20:20 12,7 C 19,4 C 12,0 C 12,3 C 11,5 C 0,0 C 77 % 82 % 0 % 1017,2 hPa 0,0 l/m 0,2 km/h (0 Bft) O-NO 67 0 min 0,0 UV-I 8,8 C 11,5 C 0,0 km/h (0 Bft)
02.10.2012 20:25 12,5 C 19,4 C 12,1 C 12,1 C 11,4 C 0,0 C 77 % 82 % 0 % 1017,2 hPa 0,0 l/m 0,2 km/h (0 Bft) O 90 0 min 0,0 UV-I 8,6 C 11,4 C 0,0 km/h (0 Bft)
02.10.2012 20:30 12,4 C 19,4 C 12,0 C 11,9 C 10,9 C 0,0 C 77 % 82 % 0 % 1017,2 hPa 0,0 l/m 0,0 km/h (0 Bft) W-SW 247 0 min 0,0 UV-I 8,5 C 10,9 C 0,0 km/h (0 Bft)
02.10.2012 20:35 12,3 C 19,4 C 12,0 C 11,8 C 10,8 C 0,0 C 77 % 83 % 0 % 1017,2 hPa 0,0 l/m 0,0 km/h (0 Bft) S 180 0 min 0,0 UV-I 8,4 C 10,8 C 0,0 km/h (0 Bft)
02.10.2012 20:40 12,0 C 19,4 C 11,6 C 11,5 C 10,5 C 0,0 C 78 % 82 % 0 % 1017,2 hPa 0,0 l/m 0,0 km/h (0 Bft) W-SW 247 0 min 0,0 UV-I 8,3 C 10,5 C 0,0 km/h (0 Bft)
02.10.2012 20:45 11,9 C 19,4 C 11,6 C 11,3 C 10,2 C 0,0 C 78 % 83 % 0 % 1017,2 hPa 0,0 l/m 0,0 km/h (0 Bft) W-SW 247 0 min 0,0 UV-I 8,2 C 10,2 C 0,0 km/h (0 Bft)
02.10.2012 20:50 11,5 C 19,4 C 11,5 C 11,0 C 10,0 C 0,0 C 79 % 83 % 0 % 1017,2 hPa 0,0 l/m 0,0 km/h (0 Bft) N-NW 337 0 min 0,0 UV-I 8,0 C 10,0 C 0,0 km/h (0 Bft)
02.10.2012 20:55 11,4 C 19,4 C 11,4 C 10,9 C 10,0 C 0,0 C 79 % 84 % 0 % 1017,2 hPa 0,0 l/m 0,0 km/h (0 Bft) N-NW 337 0 min 0,0 UV-I 7,9 C 10,0 C 0,0 km/h (0 Bft)
02.10.2012 21:00 11,2 C 19,4 C 11,3 C 10,7 C 9,8 C 0,0 C 80 % 83 % 0 % 1017,2 hPa 0,0 l/m 0,0 km/h (0 Bft) N-NW 337 0 min 0,0 UV-I 7,9 C 9,8 C 0,0 km/h (0 Bft)
02.10.2012 21:05 11,1 C 19,4 C 11,3 C 10,6 C 9,7 C 0,0 C 80 % 84 % 0 % 1017,6 hPa 0,0 l/m 0,0 km/h (0 Bft) N-NW 337 0 min 0,0 UV-I 7,8 C 9,7 C 0,0 km/h (0 Bft)
02.10.2012 21:10 10,7 C 19,5 C 11,1 C 10,3 C 9,6 C 0,0 C 80 % 84 % 0 % 1017,6 hPa 0,0 l/m 0,0 km/h (0 Bft) O-NO 67 0 min 0,0 UV-I 7,4 C 9,6 C 0,0 km/h (0 Bft)
02.10.2012 21:15 10,5 C 19,4 C 11,1 C 10,3 C 9,8 C 0,0 C 80 % 84 % 0 % 1017,6 hPa 0,0 l/m 0,0 km/h (0 Bft) O-NO 67 0 min 0,0 UV-I 7,2 C 9,8 C 0,0 km/h (0 Bft)
02.10.2012 21:20 10,3 C 19,5 C 11,0 C 10,1 C 9,6 C 0,0 C 81 % 84 % 0 % 1017,6 hPa 0,0 l/m 0,0 km/h (0 Bft) O-NO 67 0 min 0,0 UV-I 7,2 C 9,6 C 0,0 km/h (0 Bft)
02.10.2012 21:25 10,3 C 19,5 C 11,0 C 10,1 C 9,6 C 0,0 C 81 % 84 % 0 % 1017,9 hPa 0,0 l/m 0,0 km/h (0 Bft) O 90 0 min 0,0 UV-I 7,2 C 9,6 C 0,0 km/h (0 Bft)
02.10.2012 21:30 10,1 C 19,5 C 10,7 C 9,9 C 9,6 C 0,0 C 81 % 84 % 0 % 1017,9 hPa 0,0 l/m 0,0 km/h (0 Bft) O-NO 67 0 min 0,0 UV-I 7,0 C 9,6 C 0,0 km/h (0 Bft)
02.10.2012 21:35 9,9 C 19,5 C 10,6 C 9,8 C 9,6 C 0,0 C 82 % 84 % 0 % 1017,9 hPa 0,0 l/m 0,0 km/h (0 Bft) N-NW 337 0 min 0,0 UV-I 7,0 C 9,6 C 0,0 km/h (0 Bft)
02.10.2012 21:40 9,8 C 19,5 C 10,7 C 9,7 C 9,6 C 0,0 C 82 % 85 % 0 % 1017,9 hPa 0,0 l/m 0,0 km/h (0 Bft) O-SO 112 0 min 0,0 UV-I 6,9 C 9,6 C 0,0 km/h (0 Bft)
02.10.2012 21:45 9,7 C 19,5 C 10,7 C 9,7 C 9,6 C 0,0 C 82 % 85 % 0 % 1017,4 hPa 0,0 l/m 0,0 km/h (0 Bft) O-NO 67 0 min 0,0 UV-I 6,8 C 9,6 C 0,0 km/h (0 Bft)
02.10.2012 21:50 9,8 C 19,5 C 10,6 C 9,9 C 9,9 C 0,1 C 82 % 85 % 0 % 1017,4 hPa 0,0 l/m 0,0 km/h (0 Bft) O 90 0 min 0,0 UV-I 6,9 C 9,9 C 0,0 km/h (0 Bft)
02.10.2012 21:55 9,8 C 19,5 C 10,5 C 9,9 C 9,9 C 0,1 C 82 % 85 % 0 % 1017,4 hPa 0,0 l/m 0,0 km/h (0 Bft) O-SO 112 0 min 0,0 UV-I 6,9 C 9,9 C 0,0 km/h (0 Bft)
02.10.2012 22:00 9,9 C 19,6 C 10,5 C 9,9 C 9,9 C 0,0 C 82 % 86 % 0 % 1017,4 hPa 0,0 l/m 0,0 km/h (0 Bft) O-NO 67 0 min 0,0 UV-I 7,0 C 9,9 C 0,0 km/h (0 Bft)
02.10.2012 22:05 9,9 C 19,5 C 10,5 C 9,9 C 9,9 C 0,0 C 82 % 86 % 0 % 1017,6 hPa 0,0 l/m 0,0 km/h (0 Bft) O-SO 112 0 min 0,0 UV-I 7,0 C 9,9 C 0,0 km/h (0 Bft)
02.10.2012 22:10 9,9 C 19,6 C 10,4 C 9,9 C 9,9 C 0,0 C 82 % 86 % 0 % 1017,6 hPa 0,0 l/m 0,0 km/h (0 Bft) O 90 0 min 0,0 UV-I 7,0 C 9,9 C 0,0 km/h (0 Bft)
02.10.2012 22:15 10,0 C 19,6 C 10,5 C 10,0 C 9,9 C 0,0 C 82 % 86 % 0 % 1017,6 hPa 0,0 l/m 0,6 km/h (0 Bft) O 90 0 min 0,0 UV-I 7,1 C 9,9 C 2,4 km/h (1 Bft)
02.10.2012 22:20 9,9 C 19,6 C 10,4 C 9,9 C 9,9 C 0,0 C 82 % 86 % 0 % 1017,6 hPa 0,0 l/m 0,8 km/h (0 Bft) O-NO 67 0 min 0,0 UV-I 7,0 C 9,9 C 0,0 km/h (0 Bft)
02.10.2012 22:25 9,9 C 19,5 C 10,4 C 9,9 C 9,8 C 0,0 C 82 % 86 % 0 % 1017,7 hPa 0,0 l/m 0,3 km/h (0 Bft) O-NO 67 0 min 0,0 UV-I 7,0 C 9,8 C 0,0 km/h (0 Bft)
02.10.2012 22:30 9,8 C 19,5 C 10,3 C 9,8 C 9,7 C 0,0 C 82 % 86 % 0 % 1017,7 hPa 0,0 l/m 0,0 km/h (0 Bft) O-SO 112 0 min 0,0 UV-I 6,9 C 9,7 C 0,0 km/h (0 Bft)
02.10.2012 22:35 9,7 C 19,5 C 10,3 C 9,6 C 9,5 C 0,0 C 82 % 86 % 0 % 1017,7 hPa 0,0 l/m 0,0 km/h (0 Bft) S-SO 157 0 min 0,0 UV-I 6,8 C 9,5 C 0,0 km/h (0 Bft)
02.10.2012 22:40 9,5 C 19,5 C 10,1 C 9,4 C 9,1 C 0,0 C 82 % 85 % 0 % 1017,7 hPa 0,0 l/m 0,0 km/h (0 Bft) O 90 0 min 0,0 UV-I 6,6 C 9,1 C 0,0 km/h (0 Bft)
02.10.2012 22:45 9,5 C 19,5 C 10,0 C 9,4 C 9,1 C 0,0 C 82 % 85 % 0 % 1017,7 hPa 0,0 l/m 0,0 km/h (0 Bft) O-NO 67 0 min 0,0 UV-I 6,6 C 9,1 C 0,0 km/h (0 Bft)
02.10.2012 22:50 9,2 C 19,5 C 10,0 C 9,2 C 9,1 C 0,0 C 83 % 86 % 0 % 1017,7 hPa 0,0 l/m 0,0 km/h (0 Bft) O-NO 67 0 min 0,0 UV-I 6,5 C 9,1 C 0,0 km/h (0 Bft)
02.10.2012 22:55 9,2 C 19,4 C 10,0 C 9,1 C 9,0 C 0,0 C 82 % 86 % 0 % 1017,7 hPa 0,0 l/m 0,0 km/h (0 Bft) SW 225 0 min 0,0 UV-I 6,3 C 9,0 C 0,0 km/h (0 Bft)
02.10.2012 23:00 9,1 C 19,4 C 9,9 C 8,9 C 8,6 C 0,0 C 82 % 86 % 0 % 1017,7 hPa 0,0 l/m 0,0 km/h (0 Bft) W-NW 292 0 min 0,0 UV-I 6,2 C 8,6 C 0,0 km/h (0 Bft)
02.10.2012 23:05 8,8 C 19,4 C 9,7 C 8,7 C 8,4 C 0,0 C 83 % 86 % 0 % 1017,7 hPa 0,0 l/m 0,0 km/h (0 Bft) O 90 0 min 0,0 UV-I 6,1 C 8,4 C 0,0 km/h (0 Bft)
02.10.2012 23:10 8,7 C 19,5 C 9,5 C 8,6 C 8,3 C 0,0 C 83 % 86 % 0 % 1017,7 hPa 0,0 l/m 0,0 km/h (0 Bft) O-NO 67 0 min 0,0 UV-I 6,0 C 8,3 C 0,0 km/h (0 Bft)
02.10.2012 23:15 8,7 C 19,4 C 9,5 C 8,6 C 8,4 C 0,0 C 84 % 86 % 0 % 1017,7 hPa 0,0 l/m 0,0 km/h (0 Bft) O-NO 67 0 min 0,0 UV-I 6,2 C 8,4 C 0,0 km/h (0 Bft)
02.10.2012 23:20 8,4 C 19,4 C 9,5 C 8,3 C 8,1 C 0,0 C 84 % 87 % 0 % 1017,7 hPa 0,0 l/m 0,0 km/h (0 Bft) O-SO 112 0 min 0,0 UV-I 5,9 C 8,1 C 0,0 km/h (0 Bft)
02.10.2012 23:25 8,4 C 19,4 C 9,5 C 8,3 C 8,0 C 0,0 C 84 % 87 % 0 % 1017,8 hPa 0,0 l/m 0,0 km/h (0 Bft) O-NO 67 0 min 0,0 UV-I 5,9 C 8,0 C 0,0 km/h (0 Bft)
02.10.2012 23:30 8,3 C 19,4 C 9,3 C 8,2 C 7,9 C 0,0 C 84 % 87 % 0 % 1017,8 hPa 0,0 l/m 0,0 km/h (0 Bft) O-SO 112 0 min 0,0 UV-I 5,8 C 7,9 C 0,0 km/h (0 Bft)
02.10.2012 23:35 8,1 C 19,4 C 9,2 C 8,0 C 7,7 C 0,0 C 84 % 87 % 0 % 1017,8 hPa 0,0 l/m 0,0 km/h (0 Bft) O-SO 112 0 min 0,0 UV-I 5,6 C 7,7 C 0,0 km/h (0 Bft)
02.10.2012 23:40 8,0 C 19,5 C 9,2 C 7,9 C 7,8 C 0,0 C 84 % 87 % 0 % 1017,8 hPa 0,0 l/m 0,2 km/h (0 Bft) O 90 0 min 0,0 UV-I 5,5 C 7,8 C 0,0 km/h (0 Bft)
02.10.2012 23:45 8,0 C 19,5 C 9,2 C 8,0 C 8,0 C 0,0 C 85 % 87 % 0 % 1017,6 hPa 0,0 l/m 0,2 km/h (0 Bft) O-SO 112 0 min 0,0 UV-I 5,6 C 8,0 C 0,0 km/h (0 Bft)
02.10.2012 23:50 8,1 C 19,4 C 9,2 C 8,3 C 8,3 C 0,2 C 85 % 87 % 0 % 1017,6 hPa 0,0 l/m 0,0 km/h (0 Bft) O 90 0 min 0,0 UV-I 5,7 C 8,3 C 0,0 km/h (0 Bft)
02.10.2012 23:55 8,3 C 19,4 C 9,3 C 8,4 C 8,4 C 0,1 C 86 % 87 % 0 % 1017,6 hPa 0,0 l/m 0,0 km/h (0 Bft) O 90 0 min 0,0 UV-I 6,1 C 8,4 C 0,0 km/h (0 Bft)
_ Min-Zeit 07:25 09:35 07:30 23:40 23:35 02:20 16:05 15:35 00:00 16:25 - 00:00 - - - 00:00 23:40 23:35 00:00
Minimum _ 8,0 C 18,2 C 8,8 C 7,9 C 7,7 C 0,0 C 48 % 61 % 0 % 1016,7 hPa - 0,0 km/h (0 Bft) - - - 0,0 UV-I 5,5 C 7,7 C 0,0 km/h (0 Bft)
_ Max-Zeit 16:05 22:00 16:10 16:05 16:05 14:35 08:10 08:10 13:25 11:25 00:00 11:25 - - 07:25 13:15 12:41 16:05 10:25
Maximum _ 21,3 C 19,6 C 18,7 C 24,2 C 24,2 C 5,0 C 92 % 93 % 100 % 1018,1 hPa 0,0 l/m 8,4 km/h
W-SW (2 Bft)
- - 5 min 2,1 UV-I 10,5 C 24,2 C 22,2 km/h
SW (4 Bft)
Durchschnitt _ 12,7 C 18,9 C 12,7 C 13,8 C 13,7 C 1,1 C 76 % 82 % 26 % 1017,3 hPa #0,0 l/m 1,7 km/h (1 Bft) W-SW - #3:50 h 0,9 UV-I 8,3 C 13,7 C 2,5 km/h (1 Bft)
2012 www.wetterstation-wechselburg.de